Main page
METAR-TAF:

METAR-TAF

Airports :

Nea Anchialos National Airport

Volos, Greece

latitude: 39-13N, longitude: 022-48E, elevation: 25 m

Current weather observation

The report was made 25 minutes ago, at 15:20 UTC
Wind 7 kt from the East/Southeast
Temperature 21°C
Humidity 60%
Pressure 1017 hPa
Visibility 10 km or more
Few clouds at a height of 3000 ft

METAR: LGBL 171520Z 11007KT 9999 FEW030 21/13 Q1017

Time: 18:45 (15:45 UTC)

Forecast

The report was made 1 hour and 45 minutes ago, at 14:00 UTC
Forecast valid from 17 at 15 UTC to 17 at 24 UTC
Wind 8 kt from the East/Southeast
Visibility 10 km or more
Few clouds at a height of 2500 ft
Becoming
from 17 at 18 UTC to 17 at 20 UTC
Wind 6 kt from the West

TAF: LGBL 171400Z 1715/1724 11008KT 9999 FEW025 BECMG 1718/1720 28006KT

Weather observations and forecasts of more than 4000 airports (METAR and TAF reports).

The available stations are represented by yellow and red dots on the map.

Hover mouse over dot to see the name of the station.

Then click to see weather observations and forecasts.

To change the map : click on the green buttons with a black cross to zoom in, on the green button with a dash to zoom out, or on the green arrows for adjacent maps.


METAR-TAF: